Observation data for Ralls on 04/08/2020      Previous  Date       Current Mesonet Observations  Soil Data  Daily Summary Page  Observations in Plain Language
KRLS 080500Z 26005KT 13/M01 A2996 RMK A01 T01331008  RH  038%=      5-min Rain = 0
KRLS 080505Z 26006KT 14/M01 A2995 RMK A01 T01361009  RH  037%=      5-min Rain = 0
KRLS 080510Z 26007KT 14/M01 A2995 RMK A01 T01381011  RH  036%=      5-min Rain = 0
KRLS 080515Z 26008KT 14/M01 A2995 RMK A01 T01411010  RH  036%=      5-min Rain = 0
KRLS 080520Z 26009KT 15/M01 A2995 RMK A01 T01481014  RH  033%=      5-min Rain = 0
KRLS 080525Z 26008KT 16/M02 A2994 RMK A01 T01551017  RH  031%=      5-min Rain = 0
KRLS 080530Z 25007KT 15/M02 A2994 RMK A01 T01541015  RH  032%=      5-min Rain = 0
KRLS 080535Z 24007KT 15/M01 A2995 RMK A01 T01451007  RH  036%=      5-min Rain = 0
KRLS 080540Z 24007KT 14/M01 A2994 RMK A01 T01411008  RH  036%=      5-min Rain = 0
KRLS 080545Z 23006KT 15/M01 A2994 RMK A01 T01451012  RH  034%=      5-min Rain = 0
KRLS 080550Z 22008KT 15/M02 A2994 RMK A01 T01501017  RH  032%=      5-min Rain = 0
KRLS 080555Z 22009KT 16/M02 A2994 RMK A01 T01601022  RH  029%=      5-min Rain = 0
KRLS 080600Z 22010KT 16/M02 A2994 RMK A01 T01621023  RH  028%=      5-min Rain = 0
KRLS 080605Z 22010KT 16/M02 A2994 RMK A01 T01631023  RH  028%=      5-min Rain = 0
KRLS 080610Z 22009KT 16/M02 A2994 RMK A01 T01621023  RH  028%=      5-min Rain = 0
KRLS 080615Z 23008KT 16/M02 A2994 RMK A01 T01561018  RH  030%=      5-min Rain = 0
KRLS 080620Z 23009KT 16/M02 A2994 RMK A01 T01561017  RH  031%=      5-min Rain = 0
KRLS 080625Z 23007KT 15/M01 A2994 RMK A01 T01511013  RH  033%=      5-min Rain = 0
KRLS 080630Z 23007KT 15/M02 A2994 RMK A01 T01491015  RH  033%=      5-min Rain = 0
KRLS 080635Z 23007KT 15/M02 A2994 RMK A01 T01501019  RH  032%=      5-min Rain = 0
KRLS 080640Z 24005KT 15/M02 A2994 RMK A01 T01481017  RH  033%=      5-min Rain = 0
KRLS 080645Z 24005KT 15/M01 A2994 RMK A01 T01481014  RH  033%=      5-min Rain = 0
KRLS 080650Z 23007KT 15/M02 A2994 RMK A01 T01501018  RH  032%=      5-min Rain = 0
KRLS 080655Z 23008KT 15/M02 A2994 RMK A01 T01501019  RH  032%=      5-min Rain = 0
KRLS 080700Z 23008KT 15/M02 A2994 RMK A01 T01461017  RH  033%=      5-min Rain = 0
KRLS 080705Z 23008KT 15/M02 A2994 RMK A01 T01501021  RH  031%=      5-min Rain = 0
KRLS 080710Z 23009KT 15/M02 A2993 RMK A01 T01531024  RH  030%=      5-min Rain = 0
KRLS 080715Z 23009KT 16/M03 A2993 RMK A01 T01561025  RH  029%=      5-min Rain = 0
KRLS 080720Z 23009KT 16/M02 A2993 RMK A01 T01571024  RH  029%=      5-min Rain = 0
KRLS 080725Z 23009KT 16/M02 A2993 RMK A01 T01551023  RH  029%=      5-min Rain = 0
KRLS 080730Z 23009KT 15/M02 A2993 RMK A01 T01541023  RH  030%=      5-min Rain = 0
KRLS 080735Z 23008KT 15/M02 A2993 RMK A01 T01471017  RH  033%=      5-min Rain = 0
KRLS 080740Z 23007KT 15/M02 A2993 RMK A01 T01471019  RH  032%=      5-min Rain = 0
KRLS 080745Z 25007KT 15/M02 A2993 RMK A01 T01461017  RH  033%=      5-min Rain = 0
KRLS 080750Z 25007KT 15/M02 A2993 RMK A01 T01471017  RH  033%=      5-min Rain = 0
KRLS 080755Z 24008KT 14/M02 A2993 RMK A01 T01431015  RH  034%=      5-min Rain = 0
KRLS 080800Z 24006KT 14/M01 A2993 RMK A01 T01401013  RH  035%=      5-min Rain = 0
KRLS 080805Z 24007KT 14/M01 A2993 RMK A01 T01361012  RH  036%=      5-min Rain = 0
KRLS 080810Z 24007KT 13/M01 A2993 RMK A01 T01321012  RH  037%=      5-min Rain = 0
KRLS 080815Z 24007KT 13/M01 A2993 RMK A01 T01311011  RH  038%=      5-min Rain = 0
KRLS 080820Z 25006KT 13/M01 A2993 RMK A01 T01281010  RH  039%=      5-min Rain = 0
KRLS 080825Z 25006KT 12/M01 A2993 RMK A01 T01241009  RH  040%=      5-min Rain = 0
KRLS 080830Z 26006KT 13/M01 A2993 RMK A01 T01251010  RH  040%=      5-min Rain = 0
KRLS 080835Z 26006KT 13/M01 A2993 RMK A01 T01251006  RH  041%=      5-min Rain = 0
KRLS 080840Z 26006KT 13/M01 A2992 RMK A01 T01251005  RH  041%=      5-min Rain = 0
KRLS 080845Z 26006KT 12/M00 A2992 RMK A01 T01231004  RH  042%=      5-min Rain = 0
KRLS 080850Z 27005KT 12/M01 A2992 RMK A01 T01181008  RH  042%=      5-min Rain = 0
KRLS 080855Z 26006KT 12/M01 A2992 RMK A01 T01171008  RH  042%=      5-min Rain = 0
KRLS 080900Z 26006KT 12/M00 A2992 RMK A01 T01161002  RH  044%=      5-min Rain = 0
KRLS 080905Z 27007KT 12/M00 A2992 RMK A01 T01171002  RH  044%=      5-min Rain = 0
KRLS 080910Z 27007KT 12/M00 A2992 RMK A01 T01181004  RH  043%=      5-min Rain = 0
KRLS 080915Z 27007KT 12/M00 A2991 RMK A01 T01191002  RH  044%=      5-min Rain = 0
KRLS 080920Z 27007KT 12/M00 A2991 RMK A01 T01201002  RH  043%=      5-min Rain = 0
KRLS 080925Z 27008KT 12/M00 A2991 RMK A01 T01231002  RH  042%=      5-min Rain = 0
KRLS 080930Z 27007KT 13/M00 A2991 RMK A01 T01281002  RH  041%=      5-min Rain = 0
KRLS 080935Z 27008KT 13/M00 A2991 RMK A01 T01281002  RH  041%=      5-min Rain = 0
KRLS 080940Z 27008KT 13/M00 A2991 RMK A01 T01321002  RH  040%=      5-min Rain = 0
KRLS 080945Z 27008KT 13/M00 A2991 RMK A01 T01341004  RH  039%=      5-min Rain = 0
KRLS 080950Z 27009KT 13/M00 A2991 RMK A01 T01331003  RH  040%=      5-min Rain = 0
KRLS 080955Z 27009KT 13/M00 A2991 RMK A01 T01341003  RH  039%=      5-min Rain = 0
KRLS 081000Z 28009KT 14/M00 A2991 RMK A01 T01361001  RH  039%=      5-min Rain = 0
KRLS 081005Z 28008KT 14/M00 A2991 RMK A01 T01351001  RH  040%=      5-min Rain = 0
KRLS 081010Z 27009KT 13/M00 A2991 RMK A01 T01321001  RH  040%=      5-min Rain = 0
KRLS 081015Z 27009KT 13/M00 A2991 RMK A01 T01291001  RH  041%=      5-min Rain = 0
KRLS 081020Z 28009KT 13/M00 A2992 RMK A01 T01281001  RH  042%=      5-min Rain = 0
KRLS 081025Z 28008KT 13/M00 A2992 RMK A01 T01281002  RH  041%=      5-min Rain = 0
KRLS 081030Z 27008KT 13/00 A2992 RMK A01 T012800-0  RH  042%=      5-min Rain = 0
KRLS 081035Z 26008KT 12/00 A2992 RMK A01 T012400-0  RH  043%=      5-min Rain = 0
KRLS 081040Z 27007KT 12/00 A2992 RMK A01 T01210001  RH  044%=      5-min Rain = 0
KRLS 081045Z 27007KT 11/00 A2992 RMK A01 T01140003  RH  047%=      5-min Rain = 0
KRLS 081050Z 28008KT 11/00 A2992 RMK A01 T01120003  RH  048%=      5-min Rain = 0
KRLS 081055Z 28007KT 11/00 A2992 RMK A01 T01120001  RH  047%=      5-min Rain = 0
KRLS 081100Z 28008KT 11/00 A2992 RMK A01 T01140001  RH  046%=      5-min Rain = 0
KRLS 081105Z 28009KT 12/M00 A2992 RMK A01 T01161001  RH  045%=      5-min Rain = 0
KRLS 081110Z 28009KT 12/M00 A2992 RMK A01 T01181002  RH  044%=      5-min Rain = 0
KRLS 081115Z 28009KT 12/M00 A2993 RMK A01 T01181002  RH  044%=      5-min Rain = 0
KRLS 081120Z 26009KT 11/00 A2993 RMK A01 T01140000  RH  046%=      5-min Rain = 0
KRLS 081125Z 27008KT 11/00 A2994 RMK A01 T010900-0  RH  047%=      5-min Rain = 0
KRLS 081130Z 27008KT 11/M00 A2994 RMK A01 T01071001  RH  048%=      5-min Rain = 0
KRLS 081135Z 28008KT 11/00 A2994 RMK A01 T01050000  RH  049%=      5-min Rain = 0
KRLS 081140Z 28009KT 11/M00 A2994 RMK A01 T01071003  RH  047%=      5-min Rain = 0
KRLS 081145Z 28008KT 11/M00 A2994 RMK A01 T01091003  RH  046%=      5-min Rain = 0
KRLS 081150Z 28008KT 11/00 A2994 RMK A01 T01060000  RH  048%=      5-min Rain = 0
KRLS 081155Z 28007KT 10/M00 A2994 RMK A01 T01031002  RH  049%=      5-min Rain = 0
KRLS 081200Z 28008KT 10/M00 A2994 RMK A01 T01021002  RH  049%=      5-min Rain = 0
KRLS 081205Z 28007KT 10/00 A2995 RMK A01 T01010000  RH  050%=      5-min Rain = 0
KRLS 081210Z 27007KT 10/00 A2995 RMK A01 T00970001  RH  052%=      5-min Rain = 0
KRLS 081215Z 27008KT 10/00 A2995 RMK A01 T00950001  RH  052%=      5-min Rain = 0
KRLS 081220Z 27008KT 10/00 A2995 RMK A01 T009700-0  RH  051%=      5-min Rain = 0
KRLS 081225Z 28008KT 10/M00 A2995 RMK A01 T01021002  RH  049%=      5-min Rain = 0
KRLS 081230Z 27009KT 11/M00 A2995 RMK A01 T01061003  RH  047%=      5-min Rain = 0
KRLS 081235Z 28009KT 11/M00 A2996 RMK A01 T01091003  RH  046%=      5-min Rain = 0
KRLS 081240Z 27008KT 11/M00 A2996 RMK A01 T01111004  RH  045%=      5-min Rain = 0
KRLS 081245Z 28009KT 12/M01 A2996 RMK A01 T01151005  RH  044%=      5-min Rain = 0
KRLS 081250Z 28009KT 12/M01 A2996 RMK A01 T01201006  RH  042%=      5-min Rain = 0
KRLS 081255Z 28010KT 13/M01 A2996 RMK A01 T01271009  RH  039%=      5-min Rain = 0
KRLS 081300Z 28010KT 13/M01 A2997 RMK A01 T01301009  RH  038%=      5-min Rain = 0
KRLS 081305Z 28010KT 13/M01 A2997 RMK A01 T01321007  RH  039%=      5-min Rain = 0
KRLS 081310Z 28010KT 14/M01 A2997 RMK A01 T01361007  RH  038%=      5-min Rain = 0
KRLS 081315Z 28010KT 14/M01 A2997 RMK A01 T01401007  RH  037%=      5-min Rain = 0
KRLS 081320Z 28009KT 14/M00 A2997 RMK A01 T01441003  RH  037%=      5-min Rain = 0
KRLS 081325Z 28009KT 15/M00 A2997 RMK A01 T01461002  RH  037%=      5-min Rain = 0
KRLS 081330Z 28009KT 15/00 A2997 RMK A01 T015100-0  RH  036%=      5-min Rain = 0
KRLS 081335Z 27008KT 15/00 A2998 RMK A01 T01530004  RH  037%=      5-min Rain = 0
KRLS 081340Z 27009KT 16/00 A2998 RMK A01 T01570003  RH  036%=      5-min Rain = 0
KRLS 081345Z 27009KT 16/01 A2998 RMK A01 T01610005  RH  035%=      5-min Rain = 0
KRLS 081350Z 28011KT 17/00 A2998 RMK A01 T01670002  RH  033%=      5-min Rain = 0
KRLS 081355Z 28011KT 17/00 A2998 RMK A01 T017300-0  RH  031%=      5-min Rain = 0
KRLS 081400Z 28011KT 18/M00 A2998 RMK A01 T01781001  RH  030%=      5-min Rain = 0
KRLS 081405Z 28011G16KT 18/M00 A2998 RMK A01 T01821001  RH  029%=      5-min Rain = 0
KRLS 081410Z 28011KT 19/00 A2999 RMK A01 T01860001  RH  029%=      5-min Rain = 0
KRLS 081415Z 28011KT 19/M00 A2999 RMK A01 T01891001  RH  028%=      5-min Rain = 0
KRLS 081420Z 28011KT 19/00 A2999 RMK A01 T01930001  RH  028%=      5-min Rain = 0
KRLS 081425Z 28011KT 20/00 A2999 RMK A01 T01960001  RH  027%=      5-min Rain = 0
KRLS 081430Z 28010KT 20/01 A2999 RMK A01 T01990006  RH  028%=      5-min Rain = 0
KRLS 081435Z 28011KT 20/00 A2999 RMK A01 T02020001  RH  026%=      5-min Rain = 0
KRLS 081440Z 29012KT 21/00 A30 RMK A01 T020600-0  RH  025%=      5-min Rain = 0
KRLS 081445Z 29012G18KT 21/M01 A30 RMK A01 T02101006  RH  024%=      5-min Rain = 0
KRLS 081450Z 29013KT 21/M01 A2999 RMK A01 T02121010  RH  023%=      5-min Rain = 0
KRLS 081455Z 29012G17KT 22/M01 A2999 RMK A01 T02151009  RH  023%=      5-min Rain = 0
KRLS 081500Z 28014G19KT 22/M01 A30 RMK A01 T02161012  RH  022%=      5-min Rain = 0
KRLS 081505Z 28013G18KT 22/M01 A30 RMK A01 T02191006  RH  023%=      5-min Rain = 0
KRLS 081510Z 28013KT 22/M00 A30 RMK A01 T02191004  RH  023%=      5-min Rain = 0
KRLS 081515Z 28012KT 22/M00 A30 RMK A01 T02221003  RH  023%=      5-min Rain = 0
KRLS 081520Z 29012KT 22/M00 A30 RMK A01 T02241002  RH  022%=      5-min Rain = 0
KRLS 081525Z 30012KT 23/M00 A2999 RMK A01 T02271001  RH  022%=      5-min Rain = 0
KRLS 081530Z 31012KT 23/M00 A2999 RMK A01 T02311002  RH  022%=      5-min Rain = 0
KRLS 081535Z 30013KT 23/M00 A2999 RMK A01 T02321003  RH  021%=      5-min Rain = 0
KRLS 081540Z 30013KT 23/M01 A2999 RMK A01 T02331006  RH  021%=      5-min Rain = 0
KRLS 081545Z 29012KT 23/M01 A30 RMK A01 T02341005  RH  021%=      5-min Rain = 0
KRLS 081550Z 30012KT 24/M00 A30 RMK A01 T02401001  RH  021%=      5-min Rain = 0
KRLS 081555Z 28011KT 24/00 A30 RMK A01 T02400001  RH  021%=      5-min Rain = 0
KRLS 081600Z 28011KT 24/00 A30 RMK A01 T02420002  RH  021%=      5-min Rain = 0
KRLS 081605Z 28010KT 25/00 A30 RMK A01 T02450001  RH  020%=      5-min Rain = 0
KRLS 081610Z 29010KT 25/01 A30 RMK A01 T02480005  RH  020%=      5-min Rain = 0
KRLS 081615Z 28010KT 25/01 A30 RMK A01 T02500005  RH  020%=      5-min Rain = 0
KRLS 081620Z 28009KT 25/00 A30 RMK A01 T02500004  RH  020%=      5-min Rain = 0
KRLS 081625Z 27009KT 25/01 A30 RMK A01 T02530008  RH  020%=      5-min Rain = 0
KRLS 081630Z 27009KT 26/01 A30 RMK A01 T02560008  RH  020%=      5-min Rain = 0
KRLS 081635Z 27009KT 26/01 A30 RMK A01 T02600009  RH  020%=      5-min Rain = 0
KRLS 081640Z 27009KT 26/01 A30 RMK A01 T02590007  RH  020%=      5-min Rain = 0
KRLS 081645Z 29009KT 26/01 A30 RMK A01 T02620006  RH  019%=      5-min Rain = 0
KRLS 081650Z 28009KT 26/01 A30 RMK A01 T02630007  RH  019%=      5-min Rain = 0
KRLS 081655Z 29009KT 27/01 A30 RMK A01 T02680009  RH  019%=      5-min Rain = 0
KRLS 081700Z 29010KT 27/00 A30 RMK A01 T02690001  RH  018%=      5-min Rain = 0
KRLS 081705Z 28011KT 27/M00 A30 RMK A01 T02711001  RH  017%=      5-min Rain = 0
KRLS 081710Z 30011KT 28/00 A30 RMK A01 T02760002  RH  017%=      5-min Rain = 0
KRLS 081715Z 28011KT 28/01 A30 RMK A01 T02760005  RH  017%=      5-min Rain = 0
KRLS 081720Z 29010KT 28/00 A30 RMK A01 T02770002  RH  017%=      5-min Rain = 0
KRLS 081725Z 27010KT 28/00 A2999 RMK A01 T02760004  RH  017%=      5-min Rain = 0
KRLS 081730Z 29010G16KT 28/00 A2999 RMK A01 T02800004  RH  017%=      5-min Rain = 0
KRLS 081735Z 29010KT 28/00 A2999 RMK A01 T02810001  RH  016%=      5-min Rain = 0
KRLS 081740Z 29011KT 28/M00 A2999 RMK A01 T02831002  RH  016%=      5-min Rain = 0
KRLS 081745Z 29011KT 28/M01 A2999 RMK A01 T02831008  RH  015%=      5-min Rain = 0
KRLS 081750Z 28010KT 28/M02 A2998 RMK A01 T02811015  RH  015%=      5-min Rain = 0
KRLS 081755Z 31010G16KT 28/M01 A2998 RMK A01 T02831009  RH  015%=      5-min Rain = 0
KRLS 081800Z 30011KT 28/M01 A2998 RMK A01 T02841014  RH  014%=      5-min Rain = 0
KRLS 081805Z 29010KT 29/M01 A2998 RMK A01 T02851014  RH  014%=      5-min Rain = 0
KRLS 081810Z 29011KT 28/M01 A2997 RMK A01 T02841014  RH  014%=      5-min Rain = 0
KRLS 081815Z 29010G15KT 29/M01 A2997 RMK A01 T02861011  RH  015%=      5-min Rain = 0
KRLS 081820Z 28009G14KT 29/M02 A2997 RMK A01 T02881022  RH  013%=      5-min Rain = 0
KRLS 081825Z 30012G19KT 29/M03 A2997 RMK A01 T02901026  RH  013%=      5-min Rain = 0
KRLS 081830Z 29014G19KT 29/M04 A2997 RMK A01 T02891037  RH  012%=      5-min Rain = 0
KRLS 081835Z 28009G14KT 29/M04 A2997 RMK A01 T02871036  RH  012%=      5-min Rain = 0
KRLS 081840Z 28012G19KT 29/M04 A2996 RMK A01 T02881038  RH  012%=      5-min Rain = 0
KRLS 081845Z 31012G17KT 29/M03 A2996 RMK A01 T02891034  RH  012%=      5-min Rain = 0
KRLS 081850Z 30011G18KT 29/M04 A2996 RMK A01 T02911036  RH  012%=      5-min Rain = 0
KRLS 081855Z 32011G18KT 29/M04 A2996 RMK A01 T02901042  RH  011%=      5-min Rain = 0
KRLS 081900Z 31013KT 29/M04 A2996 RMK A01 T02901035  RH  012%=      5-min Rain = 0
KRLS 081905Z 30009KT 29/M03 A2996 RMK A01 T02921030  RH  012%=      5-min Rain = 0
KRLS 081910Z 29013G18KT 29/M03 A2996 RMK A01 T02931032  RH  012%=      5-min Rain = 0
KRLS 081915Z 29013G19KT 29/M04 A2996 RMK A01 T02941037  RH  011%=      5-min Rain = 0
KRLS 081920Z 28011G17KT 30/M04 A2996 RMK A01 T02951036  RH  011%=      5-min Rain = 0
KRLS 081925Z 27015KT 29/M03 A2996 RMK A01 T02941030  RH  012%=      5-min Rain = 0
KRLS 081930Z 27012KT 29/M03 A2996 RMK A01 T02941032  RH  012%=      5-min Rain = 0
KRLS 081935Z 29009G15KT 29/M05 A2996 RMK A01 T02931047  RH  011%=      5-min Rain = 0
KRLS 081940Z 27007G15KT 30/M04 A2995 RMK A01 T02951041  RH  011%=      5-min Rain = 0
KRLS 081945Z 30012KT 30/M03 A2995 RMK A01 T02981031  RH  012%=      5-min Rain = 0
KRLS 081950Z 30015KT 30/M04 A2995 RMK A01 T02971044  RH  011%=      5-min Rain = 0
KRLS 081955Z 30010G18KT 30/M04 A2995 RMK A01 T02971042  RH  011%=      5-min Rain = 0
KRLS 082000Z 27008G14KT 29/M04 A2995 RMK A01 T02931044  RH  011%=      5-min Rain = 0
KRLS 082005Z 27011G17KT 29/M04 A2995 RMK A01 T02941036  RH  012%=      5-min Rain = 0
KRLS 082010Z 27010G17KT 29/M05 A2994 RMK A01 T02941048  RH  011%=      5-min Rain = 0
KRLS 082015Z 29015G24KT 30/M04 A2994 RMK A01 T03001035  RH  011%=      5-min Rain = 0
KRLS 082020Z 28012G18KT 30/M04 A2994 RMK A01 T02961039  RH  011%=      5-min Rain = 0
KRLS 082025Z 30010KT 30/M05 A2994 RMK A01 T02951049  RH  010%=      5-min Rain = 0
KRLS 082030Z 31010G17KT 30/M04 A2994 RMK A01 T02991042  RH  011%=      5-min Rain = 0
KRLS 082035Z 30012G17KT 30/M04 A2994 RMK A01 T02981044  RH  011%=      5-min Rain = 0
KRLS 082040Z 28009G14KT 30/M04 A2993 RMK A01 T02981040  RH  011%=      5-min Rain = 0
KRLS 082045Z 27010G17KT 30/M04 A2993 RMK A01 T02971039  RH  011%=      5-min Rain = 0
KRLS 082050Z 29008KT 30/M04 A2993 RMK A01 T02991042  RH  011%=      5-min Rain = 0
KRLS 082055Z 26013KT 30/M04 A2993 RMK A01 T03021037  RH  011%=      5-min Rain = 0
KRLS 082100Z 24007G12KT 30/M05 A2993 RMK A01 T02981052  RH  010%=      5-min Rain = 0
KRLS 082105Z 28008KT 30/M04 A2993 RMK A01 T02991041  RH  011%=      5-min Rain = 0
KRLS 082110Z 29006G12KT 30/M03 A2992 RMK A01 T03041033  RH  011%=      5-min Rain = 0
KRLS 082115Z 26009G15KT 30/M04 A2992 RMK A01 T03031035  RH  011%=      5-min Rain = 0
KRLS 082120Z 26009KT 30/M05 A2992 RMK A01 T02991048  RH  010%=      5-min Rain = 0
KRLS 082125Z 30006KT 30/M05 A2992 RMK A01 T03001053  RH  010%=      5-min Rain = 0
KRLS 082130Z 29007G15KT 30/M06 A2992 RMK A01 T02981057  RH  010%=      5-min Rain = 0
KRLS 082135Z 28006G14KT 30/M06 A2992 RMK A01 T02991061  RH  009%=      5-min Rain = 0
KRLS 082140Z 28007G16KT 30/M06 A2991 RMK A01 T02951062  RH  009%=      5-min Rain = 0
KRLS 082145Z 31005G11KT 30/M06 A2991 RMK A01 T02961059  RH  010%=      5-min Rain = 0
KRLS 082150Z 32012KT 30/M06 A2991 RMK A01 T02991055  RH  010%=      5-min Rain = 0
KRLS 082155Z 31008KT 29/M06 A2991 RMK A01 T02941062  RH  009%=      5-min Rain = 0
KRLS 082200Z 30008KT 30/M06 A2991 RMK A01 T02951059  RH  010%=      5-min Rain = 0
KRLS 082205Z 28007G12KT 30/M06 A2991 RMK A01 T02961060  RH  009%=      5-min Rain = 0
KRLS 082210Z 33006KT 30/M05 A2991 RMK A01 T03001054  RH  010%=      5-min Rain = 0
KRLS 082215Z 31010G22KT 30/M06 A2991 RMK A01 T02961055  RH  010%=      5-min Rain = 0
KRLS 082220Z 28007KT 30/M03 A2991 RMK A01 T03011030  RH  012%=      5-min Rain = 0
KRLS 082225Z 27007KT 30/M06 A2991 RMK A01 T03001057  RH  009%=      5-min Rain = 0
KRLS 082230Z 28007KT 30/M07 A2991 RMK A01 T02961065  RH  009%=      5-min Rain = 0
KRLS 082235Z 29009KT 29/M05 A2991 RMK A01 T02931050  RH  010%=      5-min Rain = 0
KRLS 082240Z 29008KT 29/M06 A2991 RMK A01 T02871063  RH  010%=      5-min Rain = 0
KRLS 082245Z 29006KT 30/M05 A299 RMK A01 T02951050  RH  010%=      5-min Rain = 0
KRLS 082250Z 30006KT 30/M05 A299 RMK A01 T03001048  RH  010%=      5-min Rain = 0
KRLS 082255Z 32007KT 30/M06 A299 RMK A01 T02971059  RH  010%=      5-min Rain = 0
KRLS 082300Z 30006KT 30/M05 A299 RMK A01 T02951054  RH  010%=      5-min Rain = 0
KRLS 082305Z 30005G10KT 30/M05 A2991 RMK A01 T02971048  RH  010%=      5-min Rain = 0
KRLS 082310Z 29007KT 29/M05 A2991 RMK A01 T02941051  RH  010%=      5-min Rain = 0
KRLS 082315Z 27006KT 29/M04 A2991 RMK A01 T02921044  RH  011%=      5-min Rain = 0
KRLS 082320Z 31007KT 29/M06 A2991 RMK A01 T02941057  RH  010%=      5-min Rain = 0
KRLS 082325Z 28005G10KT 29/M05 A2991 RMK A01 T02941052  RH  010%=      5-min Rain = 0
KRLS 082330Z 31007G12KT 30/M05 A2991 RMK A01 T02951049  RH  010%=      5-min Rain = 0
KRLS 082335Z 32008KT 29/M05 A2991 RMK A01 T02911052  RH  010%=      5-min Rain = 0
KRLS 082340Z 31006KT 29/M05 A2991 RMK A01 T02911047  RH  011%=      5-min Rain = 0
KRLS 082345Z 32007KT 29/M05 A2991 RMK A01 T02901051  RH  011%=      5-min Rain = 0
KRLS 082350Z 31007KT 29/M05 A2991 RMK A01 T02891054  RH  010%=      5-min Rain = 0
KRLS 082355Z 30004KT 29/M06 A2991 RMK A01 T02901060  RH  010%=      5-min Rain = 0
KRLS 090000Z 31006KT 29/M05 A2991 RMK A01 T02881053  RH  011%=      5-min Rain = 0
KRLS 090005Z 31006KT 28/M04 A2991 RMK A01 T02821041  RH  012%=      5-min Rain = 0
KRLS 090010Z 30005KT 27/M04 A2991 RMK A01 T02741040  RH  013%=      5-min Rain = 0
KRLS 090015Z 28004KT 28/M01 A2991 RMK A01 T02761010  RH  016%=      5-min Rain = 0
KRLS 090020Z 29004KT 28/M00 A2991 RMK A01 T02781003  RH  016%=      5-min Rain = 0
KRLS 090025Z 30004KT 28/M02 A2991 RMK A01 T02771020  RH  014%=      5-min Rain = 0
KRLS 090030Z 28003KT 27/M01 A2991 RMK A01 T02731011  RH  016%=      5-min Rain = 0
KRLS 090035Z 29003KT 28/00 A2991 RMK A01 T02750000  RH  017%=      5-min Rain = 0
KRLS 090040Z 28003KT 27/01 A2991 RMK A01 T02730006  RH  018%=      5-min Rain = 0
KRLS 090045Z 27003KT 27/02 A2992 RMK A01 T02680016  RH  020%=      5-min Rain = 0
KRLS 090050Z 26003KT 26/02 A2992 RMK A01 T02630021  RH  021%=      5-min Rain = 0
KRLS 090055Z 27002KT 26/03 A2992 RMK A01 T02560029  RH  023%=      5-min Rain = 0
KRLS 090100Z 30003KT 25/01 A2992 RMK A01 T02470005  RH  021%=      5-min Rain = 0
KRLS 090105Z 33005KT 25/M03 A2993 RMK A01 T02511032  RH  015%=      5-min Rain = 0
KRLS 090110Z 35006KT 24/M03 A2993 RMK A01 T02421032  RH  016%=      5-min Rain = 0
KRLS 090115Z 35007KT 24/M03 A2993 RMK A01 T02411033  RH  016%=      5-min Rain = 0
KRLS 090120Z 36006KT 24/M03 A2994 RMK A01 T02411033  RH  016%=      5-min Rain = 0
KRLS 090125Z 01007KT 24/M03 A2994 RMK A01 T02391034  RH  016%=      5-min Rain = 0
KRLS 090130Z 01006KT 24/M03 A2994 RMK A01 T02421034  RH  016%=      5-min Rain = 0
KRLS 090135Z 00006KT 24/M03 A2994 RMK A01 T02361032  RH  017%=      5-min Rain = 0
KRLS 090140Z 00005KT 23/M03 A2994 RMK A01 T02291027  RH  018%=      5-min Rain = 0
KRLS 090145Z 01005KT 23/M03 A2994 RMK A01 T02271025  RH  019%=      5-min Rain = 0
KRLS 090150Z 02005KT 23/M02 A2995 RMK A01 T02261023  RH  019%=      5-min Rain = 0
KRLS 090155Z 02006KT 22/M02 A2995 RMK A01 T02231023  RH  019%=      5-min Rain = 0
KRLS 090200Z 02006KT 22/M02 A2996 RMK A01 T02191022  RH  020%=      5-min Rain = 0
KRLS 090205Z 02007KT 21/M02 A2996 RMK A01 T02121022  RH  021%=      5-min Rain = 0
KRLS 090210Z 02007KT 21/M02 A2996 RMK A01 T02071020  RH  022%=      5-min Rain = 0
KRLS 090215Z 02007KT 20/M02 A2996 RMK A01 T02011021  RH  022%=      5-min Rain = 0
KRLS 090220Z 02007KT 20/M02 A2996 RMK A01 T02001019  RH  023%=      5-min Rain = 0
KRLS 090225Z 02007KT 20/M02 A2997 RMK A01 T01971015  RH  024%=      5-min Rain = 0
KRLS 090230Z 01007KT 20/M01 A2997 RMK A01 T01991013  RH  024%=      5-min Rain = 0
KRLS 090235Z 01007KT 20/M01 A2997 RMK A01 T01981013  RH  024%=      5-min Rain = 0
KRLS 090240Z 02007KT 20/M02 A2997 RMK A01 T01981017  RH  024%=      5-min Rain = 0
KRLS 090245Z 02008KT 20/M02 A2998 RMK A01 T01971020  RH  023%=      5-min Rain = 0
KRLS 090250Z 02007KT 20/M02 A2998 RMK A01 T01981022  RH  023%=      5-min Rain = 0
KRLS 090255Z 02008KT 19/M02 A2998 RMK A01 T01941023  RH  023%=      5-min Rain = 0
KRLS 090300Z 01008KT 20/M03 A2998 RMK A01 T01971025  RH  022%=      5-min Rain = 0
KRLS 090305Z 01008KT 20/M02 A2998 RMK A01 T01971024  RH  022%=      5-min Rain = 0
KRLS 090310Z 01007KT 20/M02 A2998 RMK A01 T01951021  RH  023%=      5-min Rain = 0
KRLS 090315Z 01008KT 20/M02 A2999 RMK A01 T01981021  RH  023%=      5-min Rain = 0
KRLS 090320Z 01007KT 20/M02 A2999 RMK A01 T01971019  RH  023%=      5-min Rain = 0
KRLS 090325Z 01007KT 20/M02 A2999 RMK A01 T01951017  RH  024%=      5-min Rain = 0
KRLS 090330Z 02006KT 19/M02 A2999 RMK A01 T01911019  RH  024%=      5-min Rain = 0
KRLS 090335Z 06003KT 18/M02 A30 RMK A01 T01831020  RH  025%=      5-min Rain = 0
KRLS 090340Z 09003KT 18/M02 A30 RMK A01 T01791016  RH  027%=      5-min Rain = 0
KRLS 090345Z 10003KT 18/M02 A3001 RMK A01 T01811019  RH  026%=      5-min Rain = 0
KRLS 090350Z 09004KT 18/M02 A3001 RMK A01 T01841020  RH  025%=      5-min Rain = 0
KRLS 090355Z 08005KT 18/M02 A3001 RMK A01 T01781022  RH  026%=      5-min Rain = 0
KRLS 090400Z 09004KT 17/M02 A3001 RMK A01 T01711022  RH  027%=      5-min Rain = 0
KRLS 090405Z 10002KT 17/M02 A3001 RMK A01 T01651017  RH  029%=      5-min Rain = 0
KRLS 090410Z 09000KT 15/M00 A3001 RMK A01 T01541002  RH  035%=      5-min Rain = 0
KRLS 090415Z 09000KT 15/01 A3002 RMK A01 T01500005  RH  038%=      5-min Rain = 0
KRLS 090420Z 00000KT 15/04 A3002 RMK A01 T01530037  RH  047%=      5-min Rain = 0
KRLS 090425Z 12003KT 16/01 A3002 RMK A01 T01620006  RH  036%=      5-min Rain = 0
KRLS 090430Z 11003KT 17/M02 A3002 RMK A01 T01711016  RH  028%=      5-min Rain = 0
KRLS 090435Z 11003KT 18/M02 A3002 RMK A01 T01751017  RH  027%=      5-min Rain = 0
KRLS 090440Z 12004KT 18/M02 A3002 RMK A01 T01801018  RH  026%=      5-min Rain = 0
KRLS 090445Z 13003KT 18/M01 A3002 RMK A01 T01791013  RH  028%=      5-min Rain = 0
KRLS 090450Z 12002KT 16/00 A3002 RMK A01 T01550002  RH  036%=      5-min Rain = 0
KRLS 090455Z 12003KT 15/00 A3002 RMK A01 T014800-0  RH  037%=      5-min Rain = 0

Page generated in 0.016 seconds.